createdAt,value
2024-01-08T00:00:43.459Z,48.53
2024-01-08T00:03:10.125Z,48.17
2024-01-08T00:05:40.651Z,48.35
2024-01-08T00:08:09.052Z,48.24
2024-01-08T00:10:38.842Z,48.20
2024-01-08T00:13:06.048Z,48.22
2024-01-08T00:15:32.786Z,48.27
2024-01-08T00:17:59.565Z,48.28
2024-01-08T00:20:26.306Z,48.28
2024-01-08T00:22:52.966Z,48.14
2024-01-08T00:25:23.372Z,48.26
2024-01-08T00:27:53.090Z,48.32
2024-01-08T00:30:20.384Z,48.19
2024-01-08T00:32:48.159Z,48.28
2024-01-08T00:35:15.624Z,48.10
2024-01-08T00:37:42.703Z,48.08
2024-01-08T00:40:13.052Z,48.23
2024-01-08T00:42:40.728Z,48.20
2024-01-08T00:45:08.648Z,48.11
2024-01-08T00:47:35.946Z,48.19
2024-01-08T00:50:03.961Z,47.99
2024-01-08T00:52:30.757Z,48.05
2024-01-08T00:55:03.245Z,48.17
2024-01-08T00:57:29.859Z,48.11
2024-01-08T00:59:56.465Z,48.09
2024-01-08T01:02:23.102Z,47.99
2024-01-08T01:04:50.166Z,48.15
2024-01-08T01:07:17.230Z,48.00
2024-01-08T01:09:43.813Z,48.14
2024-01-08T01:12:11.156Z,48.24
2024-01-08T01:14:37.881Z,48.21
2024-01-08T01:17:04.866Z,48.15
2024-01-08T01:19:31.596Z,48.10
2024-01-08T01:21:58.264Z,48.17
2024-01-08T01:24:25.231Z,48.12
2024-01-08T01:26:51.948Z,48.20
2024-01-08T01:29:18.600Z,48.19
2024-01-08T01:31:45.203Z,48.13
2024-01-08T01:34:12.209Z,47.97
2024-01-08T01:36:39.168Z,48.05
2024-01-08T01:39:06.054Z,48.22
2024-01-08T01:41:33.437Z,48.17
2024-01-08T01:44:00.432Z,48.25
2024-01-08T01:46:34.604Z,48.11
2024-01-08T01:49:01.462Z,48.11
2024-01-08T01:51:28.146Z,48.17
2024-01-08T01:53:55.125Z,48.11
2024-01-08T01:56:21.814Z,48.18
2024-01-08T01:58:48.813Z,48.23
2024-01-08T02:01:15.835Z,48.15
2024-01-08T02:03:43.215Z,48.30
2024-01-08T02:06:12.465Z,48.01
2024-01-08T02:08:40.012Z,48.12
2024-01-08T02:11:06.623Z,47.65
2024-01-08T02:13:33.225Z,48.17
2024-01-08T02:15:59.946Z,48.09
2024-01-08T02:18:26.620Z,48.31
2024-01-08T02:20:53.233Z,48.10
2024-01-08T02:23:19.964Z,47.98
2024-01-08T02:25:46.718Z,48.11
2024-01-08T02:28:13.312Z,47.97
2024-01-08T02:30:39.971Z,48.11
2024-01-08T02:33:06.594Z,48.05
2024-01-08T02:35:33.307Z,47.98
2024-01-08T02:37:59.973Z,48.13
2024-01-08T02:40:27.499Z,48.12
2024-01-08T02:42:54.243Z,48.07
2024-01-08T02:45:20.950Z,48.18
2024-01-08T02:47:47.678Z,47.99
2024-01-08T02:50:14.446Z,47.91
2024-01-08T02:52:41.084Z,47.72
2024-01-08T02:55:08.197Z,47.78
2024-01-08T02:57:34.864Z,48.04
2024-01-08T03:00:04.988Z,47.96
2024-01-08T03:02:32.460Z,47.93
2024-01-08T03:04:59.227Z,47.86
2024-01-08T03:07:25.833Z,48.05
2024-01-08T03:09:57.934Z,47.78
2024-01-08T03:12:25.391Z,47.69
2024-01-08T03:14:52.619Z,47.74
2024-01-08T03:17:19.330Z,48.00
2024-01-08T03:19:46.085Z,48.07
2024-01-08T03:22:12.707Z,47.86
2024-01-08T03:24:39.309Z,47.54
2024-01-08T03:27:05.931Z,47.74
2024-01-08T03:29:32.746Z,47.59
2024-01-08T03:31:59.437Z,47.58
2024-01-08T03:34:26.202Z,47.73
2024-01-08T03:36:52.961Z,47.72
2024-01-08T03:39:19.562Z,47.57
2024-01-08T03:41:46.140Z,47.66
2024-01-08T03:44:14.620Z,47.63
2024-01-08T03:46:41.552Z,47.57
2024-01-08T03:49:08.295Z,47.47
2024-01-08T03:51:37.881Z,47.54
2024-01-08T03:54:04.584Z,47.39
2024-01-08T03:56:31.254Z,47.31
2024-01-08T03:58:58.007Z,47.26
2024-01-08T04:01:24.947Z,47.37
2024-01-08T04:03:51.591Z,47.42
2024-01-08T04:06:18.566Z,47.30
2024-01-08T04:08:45.255Z,47.36
2024-01-08T04:11:11.963Z,47.40
2024-01-08T04:13:39.893Z,47.19
2024-01-08T04:16:06.840Z,47.26
2024-01-08T04:18:33.741Z,47.25
2024-01-08T04:21:00.480Z,47.33
2024-01-08T04:23:27.114Z,47.07
2024-01-08T04:25:53.781Z,47.30
2024-01-08T04:28:22.098Z,47.14
2024-01-08T04:30:48.566Z,47.12
2024-01-08T04:33:15.421Z,47.04
2024-01-08T04:35:42.070Z,47.17
2024-01-08T04:38:08.715Z,47.31
2024-01-08T04:40:35.288Z,47.16
2024-01-08T04:43:01.866Z,46.91
2024-01-08T04:45:28.482Z,46.98
2024-01-08T04:47:55.187Z,46.93
2024-01-08T04:50:21.904Z,46.91
2024-01-08T04:52:48.537Z,46.72
2024-01-08T04:55:15.564Z,46.85
2024-01-08T04:57:42.307Z,46.77
2024-01-08T05:00:09.345Z,46.69
2024-01-08T05:02:36.199Z,46.61
2024-01-08T05:05:05.988Z,46.78
2024-01-08T05:07:32.655Z,46.76
2024-01-08T05:09:59.742Z,46.74
2024-01-08T05:12:26.340Z,46.57
2024-01-08T05:14:52.931Z,46.59
2024-01-08T05:17:21.623Z,46.75
2024-01-08T05:19:49.683Z,46.52
2024-01-08T05:22:16.284Z,46.47
2024-01-08T05:24:42.886Z,46.38
2024-01-08T05:27:09.496Z,46.45
2024-01-08T05:29:36.151Z,46.52
2024-01-08T05:32:02.901Z,46.39
2024-01-08T05:34:29.950Z,46.46
2024-01-08T05:36:57.477Z,46.30
2024-01-08T05:39:24.095Z,46.29
2024-01-08T05:41:50.753Z,46.17
2024-01-08T05:44:17.382Z,46.38
2024-01-08T05:46:45.050Z,46.20
2024-01-08T05:49:11.999Z,46.28
2024-01-08T05:51:38.649Z,46.32
2024-01-08T05:54:05.280Z,46.06
2024-01-08T05:56:32.881Z,46.28
2024-01-08T05:59:00.703Z,46.12
2024-01-08T06:01:27.395Z,46.10
2024-01-08T06:03:54.078Z,46.04
2024-01-08T06:06:21.935Z,45.96
2024-01-08T06:08:50.055Z,45.90
2024-01-08T06:11:17.909Z,46.27
2024-01-08T06:13:44.587Z,46.32
2024-01-08T06:16:16.899Z,46.00
2024-01-08T06:18:43.844Z,46.11
2024-01-08T06:21:10.492Z,46.06
2024-01-08T06:23:37.226Z,46.11
2024-01-08T06:26:04.647Z,46.20
2024-01-08T06:28:31.355Z,46.16
2024-01-08T06:30:58.117Z,46.04
2024-01-08T06:33:25.024Z,46.02
2024-01-08T06:35:51.856Z,45.84
2024-01-08T06:38:18.539Z,45.97
2024-01-08T06:40:45.225Z,45.76
2024-01-08T06:43:12.172Z,45.74
2024-01-08T06:45:38.728Z,45.86
2024-01-08T06:48:05.628Z,45.84
2024-01-08T06:50:32.449Z,45.80
2024-01-08T06:52:59.067Z,45.74
2024-01-08T06:55:25.651Z,45.76
2024-01-08T06:57:54.079Z,45.77
2024-01-08T07:00:22.300Z,45.78
2024-01-08T07:02:49.270Z,45.78
2024-01-08T07:05:16.843Z,45.94
2024-01-08T07:07:43.472Z,45.71
2024-01-08T07:10:10.309Z,45.85
2024-01-08T07:12:37.009Z,45.77
2024-01-08T07:15:08.245Z,45.55
2024-01-08T07:17:35.021Z,45.61
2024-01-08T07:20:01.890Z,45.51
2024-01-08T07:22:28.669Z,45.53
2024-01-08T07:24:55.243Z,45.34
2024-01-08T07:27:21.813Z,45.64
2024-01-08T07:29:48.418Z,45.16
2024-01-08T07:32:15.809Z,45.29
2024-01-08T07:34:42.559Z,45.29
2024-01-08T07:37:09.187Z,45.25
2024-01-08T07:39:35.767Z,45.25
2024-01-08T07:42:02.338Z,43.12
2024-01-08T07:44:28.937Z,43.77
2024-01-08T07:46:55.578Z,44.49
2024-01-08T07:49:22.220Z,44.92
2024-01-08T07:51:48.844Z,45.32
2024-01-08T07:54:15.450Z,45.05
2024-01-08T07:56:52.710Z,45.15
2024-01-08T07:59:23.782Z,45.42
2024-01-08T08:01:50.411Z,45.29
2024-01-08T08:04:17.082Z,45.31
2024-01-08T08:06:45.278Z,45.35
2024-01-08T08:09:11.909Z,45.34
2024-01-08T08:11:40.550Z,45.47
2024-01-08T08:14:07.280Z,45.55
2024-01-08T08:16:34.010Z,45.70
2024-01-08T08:19:00.763Z,45.52
2024-01-08T08:21:27.474Z,45.43
2024-01-08T08:23:54.849Z,45.54
2024-01-08T08:26:21.651Z,45.47
2024-01-08T08:28:48.350Z,45.58
2024-01-08T08:31:15.019Z,45.48
2024-01-08T08:33:43.479Z,45.70
2024-01-08T08:36:10.448Z,45.43
2024-01-08T08:38:38.644Z,45.31
2024-01-08T08:41:07.463Z,45.39
2024-01-08T08:43:35.164Z,45.30
2024-01-08T08:46:03.280Z,45.25
2024-01-08T08:48:30.178Z,45.51
2024-01-08T08:50:56.793Z,45.39
2024-01-08T08:53:23.402Z,45.34
2024-01-08T08:55:50.037Z,45.04
2024-01-08T08:58:16.613Z,45.38
2024-01-08T09:00:43.219Z,45.31
2024-01-08T09:03:09.851Z,45.33
2024-01-08T09:05:40.380Z,45.22
2024-01-08T09:08:10.493Z,45.32
2024-01-08T09:10:37.087Z,45.49
2024-01-08T09:13:03.839Z,45.48
2024-01-08T09:15:30.541Z,45.22
2024-01-08T09:17:57.226Z,45.29
2024-01-08T09:20:24.348Z,45.14
2024-01-08T09:22:51.051Z,45.26
2024-01-08T09:25:17.989Z,45.26
2024-01-08T09:27:44.589Z,45.40
2024-01-08T09:30:11.681Z,45.17
2024-01-08T09:32:38.714Z,45.32
2024-01-08T09:35:06.035Z,45.32
2024-01-08T09:37:32.686Z,45.34
2024-01-08T09:39:59.264Z,45.27
2024-01-08T09:42:28.563Z,45.21
2024-01-08T09:44:55.996Z,45.14
2024-01-08T09:47:22.682Z,45.23
2024-01-08T09:49:49.646Z,45.52
2024-01-08T09:52:18.284Z,45.26
2024-01-08T09:54:44.933Z,45.42
2024-01-08T09:57:11.923Z,45.34
2024-01-08T09:59:38.773Z,45.44
2024-01-08T10:02:05.778Z,45.44
2024-01-08T10:04:32.504Z,45.32
2024-01-08T10:07:08.515Z,45.39
2024-01-08T10:09:35.831Z,45.51
2024-01-08T10:12:02.449Z,45.24
2024-01-08T10:14:29.260Z,44.94
2024-01-08T10:17:01.867Z,45.13
2024-01-08T10:19:29.970Z,44.62
2024-01-08T10:22:13.974Z,44.60
2024-01-08T10:24:43.129Z,44.51
2024-01-08T10:27:11.236Z,44.63
2024-01-08T10:29:39.350Z,44.50
2024-01-08T10:32:07.071Z,44.42
2024-01-08T10:34:35.372Z,44.56
2024-01-08T10:37:02.205Z,44.77
2024-01-08T10:39:43.339Z,44.87
2024-01-08T10:42:15.397Z,45.17
2024-01-08T10:44:42.205Z,44.95
2024-01-08T10:47:21.051Z,45.15
2024-01-08T10:49:57.721Z,45.00
2024-01-08T10:52:33.881Z,44.88
2024-01-08T10:55:03.752Z,45.11
2024-01-08T10:57:49.018Z,45.03
2024-01-08T11:00:15.899Z,45.05
2024-01-08T11:02:43.604Z,45.05
2024-01-08T11:05:11.244Z,44.82
2024-01-08T11:07:42.790Z,44.87
2024-01-08T11:10:13.024Z,45.13
2024-01-08T11:12:41.948Z,45.22
2024-01-08T11:15:10.574Z,44.96
2024-01-08T11:17:37.479Z,45.06
2024-01-08T11:20:08.288Z,44.95
2024-01-08T11:22:38.782Z,44.69
2024-01-08T11:25:06.368Z,45.08
2024-01-08T11:27:33.002Z,44.96
2024-01-08T11:30:04.002Z,45.02
2024-01-08T11:32:54.074Z,45.17
2024-01-08T11:35:21.679Z,45.18
2024-01-08T11:38:21.244Z,45.05
2024-01-08T11:40:47.818Z,45.15
2024-01-08T11:43:15.181Z,45.00
2024-01-08T11:45:41.800Z,45.02
2024-01-08T11:48:09.322Z,45.10
2024-01-08T11:50:36.073Z,45.14
2024-01-08T11:53:05.201Z,44.75
2024-01-08T11:55:32.984Z,45.05
2024-01-08T11:57:59.890Z,44.93
2024-01-08T12:00:30.361Z,45.31
2024-01-08T12:03:08.598Z,45.05
2024-01-08T12:05:35.380Z,44.91
2024-01-08T12:08:02.134Z,44.95
2024-01-08T12:10:28.778Z,44.62
2024-01-08T12:12:56.498Z,44.81
2024-01-08T12:15:23.942Z,44.78
2024-01-08T12:17:51.038Z,44.61
2024-01-08T12:20:17.870Z,45.06
2024-01-08T12:22:44.957Z,45.20
2024-01-08T12:25:11.725Z,45.01
2024-01-08T12:27:40.017Z,44.83
2024-01-08T12:30:08.701Z,45.05
2024-01-08T12:32:37.623Z,45.14
2024-01-08T12:35:06.655Z,45.15
2024-01-08T12:37:34.821Z,45.04
2024-01-08T12:40:02.423Z,45.23
2024-01-08T12:42:29.330Z,45.33
2024-01-08T12:44:57.227Z,45.22
2024-01-08T12:47:24.250Z,45.38
2024-01-08T12:49:51.106Z,45.70
2024-01-08T12:52:17.821Z,45.72
2024-01-08T12:54:45.100Z,45.71
2024-01-08T12:57:12.920Z,45.74
2024-01-08T12:59:53.596Z,45.67
2024-01-08T13:02:20.754Z,45.49
2024-01-08T13:04:48.057Z,45.58
2024-01-08T13:07:14.649Z,45.67
2024-01-08T13:09:41.260Z,45.59
2024-01-08T13:12:10.243Z,45.87
2024-01-08T13:14:37.039Z,45.77
2024-01-08T13:17:04.558Z,45.94
2024-01-08T13:19:34.417Z,46.00
2024-01-08T13:22:03.205Z,46.07
2024-01-08T13:24:29.960Z,45.82
2024-01-08T13:26:56.663Z,45.78
2024-01-08T13:29:23.557Z,45.65
2024-01-08T13:31:50.354Z,45.61
2024-01-08T13:34:17.215Z,45.81
2024-01-08T13:36:43.903Z,45.68
2024-01-08T13:39:11.592Z,45.41
2024-01-08T13:41:43.611Z,45.77
2024-01-08T13:44:11.751Z,45.71
2024-01-08T13:46:38.927Z,45.79
2024-01-08T13:49:06.192Z,45.45
2024-01-08T13:51:32.929Z,45.65
2024-01-08T13:53:59.637Z,45.28
2024-01-08T13:56:26.335Z,45.41
2024-01-08T13:58:53.065Z,45.34
2024-01-08T14:01:19.879Z,45.37
2024-01-08T14:03:46.676Z,45.42
2024-01-08T14:06:14.414Z,45.41
2024-01-08T14:08:41.675Z,45.32
2024-01-08T14:11:08.828Z,45.14
2024-01-08T14:13:35.523Z,45.50
2024-01-08T14:16:02.577Z,45.28
2024-01-08T14:18:29.635Z,45.22
2024-01-08T14:20:56.633Z,45.27
2024-01-08T14:23:23.387Z,44.86
2024-01-08T14:25:49.996Z,45.27
2024-01-08T14:28:16.643Z,45.43
2024-01-08T14:30:43.440Z,45.71
2024-01-08T14:33:10.361Z,45.41
2024-01-08T14:35:37.179Z,45.44
2024-01-08T14:38:04.162Z,45.34
2024-01-08T14:40:30.945Z,45.41
2024-01-08T14:43:01.261Z,45.00
2024-01-08T14:45:28.262Z,45.33
2024-01-08T14:47:55.136Z,45.19
2024-01-08T14:50:23.793Z,45.01
2024-01-08T14:52:51.046Z,45.21
2024-01-08T14:55:18.006Z,44.97
2024-01-08T14:57:44.861Z,44.70
2024-01-08T15:00:12.684Z,45.03
2024-01-08T15:02:41.840Z,45.28
2024-01-08T15:05:10.782Z,45.28
2024-01-08T15:07:38.422Z,44.99
2024-01-08T15:10:08.961Z,44.83
2024-01-08T15:12:36.040Z,45.14
2024-01-08T15:15:02.834Z,45.07
2024-01-08T15:17:29.608Z,44.99
2024-01-08T15:19:56.264Z,44.92
2024-01-08T15:22:22.929Z,44.85
2024-01-08T15:24:56.657Z,44.67
2024-01-08T15:27:26.267Z,44.54
2024-01-08T15:29:54.086Z,44.72
2024-01-08T15:32:22.705Z,44.51
2024-01-08T15:34:49.452Z,44.57
2024-01-08T15:37:16.429Z,44.77
2024-01-08T15:39:43.004Z,44.50
2024-01-08T15:42:09.656Z,44.43
2024-01-08T15:44:36.353Z,44.38
2024-01-08T15:47:03.051Z,44.54
2024-01-08T15:49:29.766Z,44.53
2024-01-08T15:51:56.393Z,44.84
2024-01-08T15:54:24.847Z,44.72
2024-01-08T15:56:51.802Z,44.79
2024-01-08T15:59:18.660Z,44.88
2024-01-08T16:01:45.374Z,44.62
2024-01-08T16:04:12.115Z,44.63
2024-01-08T16:06:38.822Z,44.42
2024-01-08T16:09:06.485Z,44.59
2024-01-08T16:11:33.396Z,44.64
2024-01-08T16:14:00.277Z,44.65
2024-01-08T16:16:27.625Z,44.59
2024-01-08T16:18:54.610Z,44.59
2024-01-08T16:21:21.286Z,44.89
2024-01-08T16:23:55.672Z,44.92
2024-01-08T16:26:29.378Z,44.69
2024-01-08T16:28:56.021Z,44.82
2024-01-08T16:31:22.734Z,44.79
2024-01-08T16:33:49.505Z,44.74
2024-01-08T16:36:16.491Z,44.90
2024-01-08T16:38:43.316Z,44.71
2024-01-08T16:41:09.972Z,44.80
2024-01-08T16:43:36.592Z,44.74
2024-01-08T16:46:03.540Z,44.96
2024-01-08T16:48:31.117Z,45.04
2024-01-08T16:50:57.965Z,44.87
2024-01-08T16:53:25.197Z,45.08
2024-01-08T16:55:51.858Z,45.11
2024-01-08T16:58:18.428Z,45.02
2024-01-08T17:00:45.049Z,44.99
2024-01-08T17:03:11.790Z,44.56
2024-01-08T17:05:39.191Z,44.77
2024-01-08T17:08:06.047Z,44.77
2024-01-08T17:10:32.618Z,44.61
2024-01-08T17:12:59.255Z,44.51
2024-01-08T17:15:25.866Z,44.99
2024-01-08T17:17:54.749Z,45.04
2024-01-08T17:20:21.729Z,44.86
2024-01-08T17:22:48.782Z,44.56
2024-01-08T17:25:16.061Z,44.84
2024-01-08T17:27:42.770Z,44.49
2024-01-08T17:30:10.999Z,44.68
2024-01-08T17:32:39.165Z,44.59
2024-01-08T17:35:06.580Z,44.46
2024-01-08T17:37:34.546Z,44.70
2024-01-08T17:40:01.246Z,44.83
2024-01-08T17:42:27.937Z,45.00
2024-01-08T17:44:54.494Z,44.96
2024-01-08T17:47:21.126Z,44.94
2024-01-08T17:49:49.072Z,44.85
2024-01-08T17:52:15.664Z,45.05
2024-01-08T17:54:42.251Z,44.83
2024-01-08T17:57:08.863Z,45.00
2024-01-08T17:59:38.052Z,44.77
2024-01-08T18:02:04.981Z,44.93
2024-01-08T18:04:31.768Z,44.89
2024-01-08T18:06:58.886Z,45.02
2024-01-08T18:09:25.625Z,45.17
2024-01-08T18:11:52.199Z,45.30
2024-01-08T18:14:19.322Z,45.07
2024-01-08T18:16:47.093Z,44.78
2024-01-08T18:19:14.176Z,45.18
2024-01-08T18:21:42.819Z,44.75
2024-01-08T18:24:20.339Z,44.92
2024-01-08T18:26:54.555Z,45.29
2024-01-08T18:29:21.681Z,44.96
2024-01-08T18:31:48.484Z,45.43
2024-01-08T18:34:16.572Z,45.07
2024-01-08T18:36:43.983Z,45.42
2024-01-08T18:39:12.925Z,45.07
2024-01-08T18:41:39.741Z,45.05
2024-01-08T18:44:06.428Z,45.11
2024-01-08T18:46:33.174Z,44.93
2024-01-08T18:48:59.869Z,44.95
2024-01-08T18:51:26.597Z,45.05
2024-01-08T18:53:53.629Z,44.74
2024-01-08T18:56:20.323Z,44.85
2024-01-08T18:58:46.954Z,45.28
2024-01-08T19:01:13.602Z,44.98
2024-01-08T19:03:40.354Z,45.00
2024-01-08T19:06:08.929Z,45.01
2024-01-08T19:08:35.951Z,45.28
2024-01-08T19:11:02.845Z,45.51
2024-01-08T19:13:33.520Z,45.13
2024-01-08T19:16:00.110Z,45.04
2024-01-08T19:18:26.930Z,44.96
2024-01-08T19:20:53.950Z,44.81
2024-01-08T19:23:23.286Z,44.92
2024-01-08T19:25:53.189Z,44.89
2024-01-08T19:28:19.827Z,44.77
2024-01-08T19:30:46.904Z,44.94
2024-01-08T19:33:13.782Z,44.77
2024-01-08T19:35:40.849Z,45.06
2024-01-08T19:38:08.167Z,45.01
2024-01-08T19:40:35.060Z,44.84
2024-01-08T19:43:02.015Z,44.84
2024-01-08T19:45:38.114Z,44.99
2024-01-08T19:48:06.507Z,45.21
2024-01-08T19:50:33.448Z,44.98
2024-01-08T19:53:00.129Z,44.92
2024-01-08T19:55:27.336Z,45.18
2024-01-08T19:57:53.994Z,45.08
2024-01-08T20:00:20.896Z,44.90
2024-01-08T20:02:47.631Z,44.81
2024-01-08T20:05:14.507Z,45.01
2024-01-08T20:07:41.227Z,45.10
2024-01-08T20:10:09.285Z,45.12
2024-01-08T20:12:36.344Z,45.18
2024-01-08T20:15:03.277Z,45.01
2024-01-08T20:17:29.974Z,45.08
2024-01-08T20:19:58.444Z,44.91
2024-01-08T20:22:25.005Z,45.35
2024-01-08T20:24:52.401Z,45.25
2024-01-08T20:27:19.210Z,45.13
2024-01-08T20:29:46.823Z,45.26
2024-01-08T20:32:13.557Z,45.40
2024-01-08T20:34:40.260Z,45.32
2024-01-08T20:37:06.938Z,45.24
2024-01-08T20:39:33.539Z,45.44
2024-01-08T20:42:00.952Z,45.36
2024-01-08T20:44:27.942Z,45.25
2024-01-08T20:46:54.638Z,45.34
2024-01-08T20:49:27.426Z,45.53
2024-01-08T20:51:55.736Z,45.18
2024-01-08T20:54:23.182Z,45.22
2024-01-08T20:56:50.356Z,45.11
2024-01-08T20:59:17.154Z,45.51
2024-01-08T21:01:43.904Z,45.26
2024-01-08T21:04:11.140Z,45.51
2024-01-08T21:06:37.989Z,45.37
2024-01-08T21:09:06.052Z,45.30
2024-01-08T21:11:33.184Z,45.45
2024-01-08T21:13:59.919Z,45.40
2024-01-08T21:16:26.751Z,45.34
2024-01-08T21:18:55.054Z,45.58
2024-01-08T21:21:21.905Z,45.46
2024-01-08T21:23:48.618Z,45.49
2024-01-08T21:26:16.087Z,45.44
2024-01-08T21:28:42.795Z,45.54
2024-01-08T21:31:12.300Z,45.38
2024-01-08T21:33:40.646Z,45.30
2024-01-08T21:36:07.583Z,45.25
2024-01-08T21:38:37.426Z,45.38
2024-01-08T21:41:05.121Z,45.23
2024-01-08T21:43:34.973Z,45.57
2024-01-08T21:46:03.200Z,45.51
2024-01-08T21:48:30.895Z,45.64
2024-01-08T21:50:57.721Z,45.51
2024-01-08T21:53:24.490Z,45.33
2024-01-08T21:55:51.332Z,45.64
2024-01-08T21:58:17.914Z,45.59
2024-01-08T22:00:44.738Z,45.50
2024-01-08T22:03:11.555Z,45.65
2024-01-08T22:05:38.342Z,45.37
2024-01-08T22:08:05.438Z,45.72
2024-01-08T22:10:32.100Z,45.47
2024-01-08T22:12:59.155Z,45.40
2024-01-08T22:15:25.825Z,45.45
2024-01-08T22:17:52.579Z,45.36
2024-01-08T22:20:19.254Z,45.30
2024-01-08T22:22:47.938Z,45.67
2024-01-08T22:25:15.061Z,45.59
2024-01-08T22:27:42.843Z,45.40
2024-01-08T22:30:10.275Z,45.41
2024-01-08T22:32:37.208Z,45.26
2024-01-08T22:35:04.123Z,45.52
2024-01-08T22:37:30.736Z,45.85
2024-01-08T22:39:57.408Z,45.44
2024-01-08T22:42:25.113Z,45.41
2024-01-08T22:44:52.881Z,45.50
2024-01-08T22:47:19.570Z,45.67
2024-01-08T22:49:46.351Z,45.53
2024-01-08T22:52:12.968Z,45.98
2024-01-08T22:54:39.544Z,45.42
2024-01-08T22:57:06.165Z,45.43
2024-01-08T22:59:33.596Z,45.57
2024-01-08T23:02:00.270Z,45.51
2024-01-08T23:04:27.449Z,45.51
2024-01-08T23:06:54.048Z,45.59
2024-01-08T23:09:20.667Z,45.47
2024-01-08T23:11:47.353Z,45.27
2024-01-08T23:14:14.228Z,45.60
2024-01-08T23:16:40.833Z,45.85
2024-01-08T23:19:07.633Z,45.64
2024-01-08T23:21:34.248Z,45.53
2024-01-08T23:24:00.897Z,45.45
2024-01-08T23:26:27.606Z,45.65
2024-01-08T23:28:54.252Z,45.61
2024-01-08T23:31:20.888Z,45.54
2024-01-08T23:33:47.598Z,45.78
2024-01-08T23:36:14.221Z,45.64
2024-01-08T23:38:40.867Z,45.68
2024-01-08T23:41:07.544Z,45.53
2024-01-08T23:43:34.160Z,45.48
2024-01-08T23:46:00.745Z,45.56
2024-01-08T23:48:27.584Z,45.48
2024-01-08T23:50:54.411Z,45.54
2024-01-08T23:53:21.176Z,45.91
2024-01-08T23:55:47.785Z,45.58
2024-01-08T23:58:14.393Z,45.54
